Terminal Aerodrome Forecast
Issued by NWS Greer, SC

Home | Current Version | Previous Version | Text Only | Print | Product List | Glossary On
Versions: 1 2 3 4 5 6 7 8 9 10 11 12 13 14 15 16 17 18 19 20 21 22
000
FTUS42 KGSP 271852 AAA
TAFAVL
TAF AMD
KAVL 271852Z 2719/2818 21005KT P6SM VCTS FEW060CB SCT100 SCT250
      TEMPO 2719/2720 VRB10KT 5SM -TSRA BKN060CB BKN100
     FM272300 VRB02KT P6SM BKN100
     FM280800 00000KT 4SM BR BKN200
     FM281000 VRB02KT 2SM BR SCT004 BKN150 PROB30 2811/2812 1SM
      -SHRA BR OVC040
     FM281400 24003KT P6SM BKN140 PROB30 2814/2818 4SM -TSRA
      OVC040CB=

USA.gov is the U.S. government's official web portal to all federal, state and local government web resources and services.